sensor_id;sensor_type;location;lat;lon;timestamp;pressure;altitude;pressure_sealevel;temperature;humidity
18697;BME280;22617;43.690;27.956;2023-07-22T00:04:37;98758.34;;;22.23;100.00
18697;BME280;22617;43.690;27.956;2023-07-22T00:09:44;98744.88;;;22.26;100.00
18697;BME280;22617;43.690;27.956;2023-07-22T00:14:56;98739.50;;;22.28;100.00
18697;BME280;22617;43.690;27.956;2023-07-22T00:20:08;98729.06;;;22.25;100.00
18697;BME280;22617;43.690;27.956;2023-07-22T00:25:19;98721.50;;;22.33;100.00
18697;BME280;22617;43.690;27.956;2023-07-22T00:30:25;98705.13;;;22.40;100.00
18697;BME280;22617;43.690;27.956;2023-07-22T00:35:35;98688.00;;;22.30;100.00
18697;BME280;22617;43.690;27.956;2023-07-22T00:40:50;98693.06;;;22.19;100.00
18697;BME280;22617;43.690;27.956;2023-07-22T00:46:00;98674.56;;;22.17;100.00
18697;BME280;22617;43.690;27.956;2023-07-22T00:51:06;98670.63;;;22.25;100.00
18697;BME280;22617;43.690;27.956;2023-07-22T00:56:15;98668.47;;;22.31;100.00
18697;BME280;22617;43.690;27.956;2023-07-22T01:01:24;98649.72;;;22.18;100.00
18697;BME280;22617;43.690;27.956;2023-07-22T01:06:32;98653.06;;;22.22;100.00
18697;BME280;22617;43.690;27.956;2023-07-22T01:11:42;98638.25;;;22.18;100.00
18697;BME280;22617;43.690;27.956;2023-07-22T01:16:50;98663.59;;;22.24;100.00
18697;BME280;22617;43.690;27.956;2023-07-22T01:21:57;98660.69;;;22.28;100.00
18697;BME280;22617;43.690;27.956;2023-07-22T01:27:08;98662.81;;;22.22;100.00
18697;BME280;22617;43.690;27.956;2023-07-22T01:32:13;98643.38;;;22.21;100.00
18697;BME280;22617;43.690;27.956;2023-07-22T01:37:23;98637.47;;;22.16;100.00
18697;BME280;22617;43.690;27.956;2023-07-22T01:42:33;98618.19;;;22.28;100.00
18697;BME280;22617;43.690;27.956;2023-07-22T01:47:38;98594.03;;;22.33;100.00
18697;BME280;22617;43.690;27.956;2023-07-22T01:52:50;98597.88;;;22.27;100.00
18697;BME280;22617;43.690;27.956;2023-07-22T01:58:12;98596.69;;;22.33;100.00
18697;BME280;22617;43.690;27.956;2023-07-22T02:03:19;98578.69;;;22.38;100.00
18697;BME280;22617;43.690;27.956;2023-07-22T02:08:26;98581.25;;;22.39;100.00
18697;BME280;22617;43.690;27.956;2023-07-22T02:13:35;98592.31;;;22.32;100.00
18697;BME280;22617;43.690;27.956;2023-07-22T02:18:44;98616.28;;;22.30;100.00
18697;BME280;22617;43.690;27.956;2023-07-22T02:23:50;98617.34;;;22.28;100.00
18697;BME280;22617;43.690;27.956;2023-07-22T02:29:12;98618.13;;;22.30;100.00
18697;BME280;22617;43.690;27.956;2023-07-22T02:34:16;98650.66;;;22.33;100.00
18697;BME280;22617;43.690;27.956;2023-07-22T02:39:35;98662.47;;;22.43;100.00
18697;BME280;22617;43.690;27.956;2023-07-22T02:44:46;98672.16;;;22.44;100.00
18697;BME280;22617;43.690;27.956;2023-07-22T02:49:52;98694.59;;;22.39;100.00
18697;BME280;22617;43.690;27.956;2023-07-22T02:55:09;98700.41;;;22.45;100.00
18697;BME280;22617;43.690;27.956;2023-07-22T03:00:20;98703.66;;;22.50;100.00
18697;BME280;22617;43.690;27.956;2023-07-22T03:05:29;98701.25;;;22.46;100.00
18697;BME280;22617;43.690;27.956;2023-07-22T03:10:41;98692.69;;;22.41;100.00
18697;BME280;22617;43.690;27.956;2023-07-22T03:15:57;98693.28;;;22.46;100.00
18697;BME280;22617;43.690;27.956;2023-07-22T03:21:02;98720.97;;;22.57;100.00
18697;BME280;22617;43.690;27.956;2023-07-22T03:26:09;98742.56;;;22.67;100.00
18697;BME280;22617;43.690;27.956;2023-07-22T03:31:17;98757.22;;;22.74;100.00
18697;BME280;22617;43.690;27.956;2023-07-22T03:36:24;98750.97;;;22.91;100.00
18697;BME280;22617;43.690;27.956;2023-07-22T03:41:31;98786.19;;;22.79;100.00
18697;BME280;22617;43.690;27.956;2023-07-22T03:46:39;98760.91;;;22.87;100.00
18697;BME280;22617;43.690;27.956;2023-07-22T03:51:44;98743.38;;;22.99;100.00
18697;BME280;22617;43.690;27.956;2023-07-22T03:56:49;98747.84;;;23.28;100.00
18697;BME280;22617;43.690;27.956;2023-07-22T04:01:55;98738.38;;;23.38;100.00
18697;BME280;22617;43.690;27.956;2023-07-22T04:07:00;98729.66;;;23.51;98.95
18697;BME280;22617;43.690;27.956;2023-07-22T04:12:08;98739.09;;;23.26;98.46
18697;BME280;22617;43.690;27.956;2023-07-22T04:17:17;98742.72;;;23.25;100.00
18697;BME280;22617;43.690;27.956;2023-07-22T04:22:21;98741.28;;;23.20;100.00
18697;BME280;22617;43.690;27.956;2023-07-22T04:27:26;98724.88;;;23.41;99.38
18697;BME280;22617;43.690;27.956;2023-07-22T04:32:42;98717.91;;;23.55;97.25
18697;BME280;22617;43.690;27.956;2023-07-22T04:37:50;98708.56;;;23.48;95.24
18697;BME280;22617;43.690;27.956;2023-07-22T04:43:05;98710.31;;;23.33;98.65
18697;BME280;22617;43.690;27.956;2023-07-22T04:48:14;98725.97;;;23.23;100.00
18697;BME280;22617;43.690;27.956;2023-07-22T04:53:21;98707.44;;;23.22;100.00
18697;BME280;22617;43.690;27.956;2023-07-22T04:58:34;98712.41;;;23.28;100.00
18697;BME280;22617;43.690;27.956;2023-07-22T05:03:52;98706.22;;;23.27;100.00
18697;BME280;22617;43.690;27.956;2023-07-22T05:08:59;98691.38;;;23.53;100.00
18697;BME280;22617;43.690;27.956;2023-07-22T05:14:06;98688.72;;;23.81;100.00
18697;BME280;22617;43.690;27.956;2023-07-22T05:19:12;98673.00;;;24.05;100.00
18697;BME280;22617;43.690;27.956;2023-07-22T05:24:25;98665.25;;;24.29;95.78
18697;BME280;22617;43.690;27.956;2023-07-22T05:29:38;98683.63;;;24.60;91.88
18697;BME280;22617;43.690;27.956;2023-07-22T05:34:47;98682.06;;;25.10;88.41
18697;BME280;22617;43.690;27.956;2023-07-22T05:39:51;98680.25;;;25.10;84.82
18697;BME280;22617;43.690;27.956;2023-07-22T05:45:10;98681.88;;;25.13;82.62
18697;BME280;22617;43.690;27.956;2023-07-22T05:50:21;98683.38;;;25.30;80.51
18697;BME280;22617;43.690;27.956;2023-07-22T05:55:29;98685.59;;;25.48;78.03
18697;BME280;22617;43.690;27.956;2023-07-22T06:00:33;98677.69;;;25.47;78.23
18697;BME280;22617;43.690;27.956;2023-07-22T06:05:44;98667.22;;;25.94;77.93
18697;BME280;22617;43.690;27.956;2023-07-22T06:10:49;98665.44;;;26.19;74.23
18697;BME280;22617;43.690;27.956;2023-07-22T06:15:53;98662.50;;;26.47;72.99
18697;BME280;22617;43.690;27.956;2023-07-22T06:21:00;98659.06;;;26.69;72.82
18697;BME280;22617;43.690;27.956;2023-07-22T06:26:17;98663.69;;;26.91;71.12
18697;BME280;22617;43.690;27.956;2023-07-22T06:31:25;98656.44;;;27.15;70.73
18697;BME280;22617;43.690;27.956;2023-07-22T06:36:42;98650.41;;;27.46;67.66
18697;BME280;22617;43.690;27.956;2023-07-22T06:41:54;98661.03;;;27.70;67.30
18697;BME280;22617;43.690;27.956;2023-07-22T06:47:02;98661.66;;;27.85;67.14
18697;BME280;22617;43.690;27.956;2023-07-22T06:52:13;98661.34;;;28.43;66.74
18697;BME280;22617;43.690;27.956;2023-07-22T06:57:26;98665.63;;;28.78;65.30
18697;BME280;22617;43.690;27.956;2023-07-22T07:02:32;98658.00;;;28.94;61.71
18697;BME280;22617;43.690;27.956;2023-07-22T07:07:48;98663.72;;;29.42;58.20
18697;BME280;22617;43.690;27.956;2023-07-22T07:12:57;98663.03;;;29.70;57.22
18697;BME280;22617;43.690;27.956;2023-07-22T07:18:05;98660.91;;;30.04;58.13
18697;BME280;22617;43.690;27.956;2023-07-22T07:23:13;98656.72;;;30.11;55.78
18697;BME280;22617;43.690;27.956;2023-07-22T07:28:27;98650.53;;;30.30;56.63
18697;BME280;22617;43.690;27.956;2023-07-22T07:33:38;98653.53;;;30.46;56.06
18697;BME280;22617;43.690;27.956;2023-07-22T07:38:46;98653.13;;;30.51;55.26
18697;BME280;22617;43.690;27.956;2023-07-22T07:43:51;98651.03;;;30.73;54.59
18697;BME280;22617;43.690;27.956;2023-07-22T07:49:03;98636.97;;;30.80;54.95
18697;BME280;22617;43.690;27.956;2023-07-22T07:54:20;98633.59;;;31.06;53.90
18697;BME280;22617;43.690;27.956;2023-07-22T07:59:26;98636.31;;;31.53;52.76
18697;BME280;22617;43.690;27.956;2023-07-22T08:04:30;98637.88;;;31.65;52.63
18697;BME280;22617;43.690;27.956;2023-07-22T08:09:42;98646.06;;;32.10;52.89
18697;BME280;22617;43.690;27.956;2023-07-22T08:14:55;98629.44;;;32.15;52.13
18697;BME280;22617;43.690;27.956;2023-07-22T08:20:29;98630.53;;;32.22;51.98
18697;BME280;22617;43.690;27.956;2023-07-22T08:25:34;98634.16;;;32.48;51.10
18697;BME280;22617;43.690;27.956;2023-07-22T08:30:37;98640.44;;;32.66;50.24
18697;BME280;22617;43.690;27.956;2023-07-22T08:35:42;98637.66;;;32.76;49.83
18697;BME280;22617;43.690;27.956;2023-07-22T08:40:49;98636.78;;;32.85;49.16
18697;BME280;22617;43.690;27.956;2023-07-22T08:45:54;98630.25;;;33.13;48.49
18697;BME280;22617;43.690;27.956;2023-07-22T08:51:02;98631.72;;;33.51;49.24
18697;BME280;22617;43.690;27.956;2023-07-22T09:07:18;98614.84;;;33.91;46.98
18697;BME280;22617;43.690;27.956;2023-07-22T09:12:22;98619.78;;;34.38;45.13
18697;BME280;22617;43.690;27.956;2023-07-22T09:17:27;98602.59;;;34.71;45.22
18697;BME280;22617;43.690;27.956;2023-07-22T09:22:32;98594.31;;;34.81;44.76
18697;BME280;22617;43.690;27.956;2023-07-22T09:27:36;98593.44;;;34.88;44.42
18697;BME280;22617;43.690;27.956;2023-07-22T09:32:41;98595.81;;;35.08;41.61
18697;BME280;22617;43.690;27.956;2023-07-22T09:37:46;98586.09;;;35.54;40.39
18697;BME280;22617;43.690;27.956;2023-07-22T09:42:50;98594.69;;;35.73;39.21
18697;BME280;22617;43.690;27.956;2023-07-22T09:47:55;98579.66;;;35.47;39.17
18697;BME280;22617;43.690;27.956;2023-07-22T09:53:00;98588.09;;;35.60;39.91
18697;BME280;22617;43.690;27.956;2023-07-22T09:58:06;98574.69;;;36.13;39.14
18697;BME280;22617;43.690;27.956;2023-07-22T10:03:11;98583.56;;;35.99;37.58
18697;BME280;22617;43.690;27.956;2023-07-22T10:08:21;98574.81;;;35.81;38.10
18697;BME280;22617;43.690;27.956;2023-07-22T10:13:27;98590.66;;;36.39;38.67
18697;BME280;22617;43.690;27.956;2023-07-22T10:18:32;98577.78;;;36.64;37.38
18697;BME280;22617;43.690;27.956;2023-07-22T10:23:38;98573.50;;;36.39;37.20
18697;BME280;22617;43.690;27.956;2023-07-22T10:28:53;98569.41;;;36.43;37.62
18697;BME280;22617;43.690;27.956;2023-07-22T10:34:34;98590.50;;;36.63;36.34
18697;BME280;22617;43.690;27.956;2023-07-22T10:47:34;98564.97;;;36.50;37.20
18697;BME280;22617;43.690;27.956;2023-07-22T10:52:41;98574.88;;;36.88;35.95
18697;BME280;22617;43.690;27.956;2023-07-22T11:05:20;98590.03;;;37.20;35.59
18697;BME280;22617;43.690;27.956;2023-07-22T11:10:54;98574.28;;;37.16;35.83
18697;BME280;22617;43.690;27.956;2023-07-22T11:15:58;98572.44;;;36.70;35.44
18697;BME280;22617;43.690;27.956;2023-07-22T11:21:07;98572.16;;;36.88;36.59
18697;BME280;22617;43.690;27.956;2023-07-22T11:26:12;98569.56;;;36.72;35.14
18697;BME280;22617;43.690;27.956;2023-07-22T11:31:16;98579.53;;;35.16;37.10
18697;BME280;22617;43.690;27.956;2023-07-22T11:36:22;98571.88;;;35.43;36.96
18697;BME280;22617;43.690;27.956;2023-07-22T11:41:26;98577.38;;;36.90;35.40
18697;BME280;22617;43.690;27.956;2023-07-22T11:46:30;98581.88;;;37.20;34.98
18697;BME280;22617;43.690;27.956;2023-07-22T11:51:35;98573.00;;;37.41;34.47
18697;BME280;22617;43.690;27.956;2023-07-22T11:56:39;98567.81;;;36.94;35.75
18697;BME280;22617;43.690;27.956;2023-07-22T12:01:44;98555.56;;;36.98;34.70
18697;BME280;22617;43.690;27.956;2023-07-22T12:06:50;98561.38;;;36.95;34.94
18697;BME280;22617;43.690;27.956;2023-07-22T12:11:55;98552.34;;;37.46;34.15
18697;BME280;22617;43.690;27.956;2023-07-22T12:17:00;98561.94;;;37.72;32.69
18697;BME280;22617;43.690;27.956;2023-07-22T12:22:06;98571.59;;;37.45;33.51
18697;BME280;22617;43.690;27.956;2023-07-22T12:27:09;98552.19;;;37.63;33.82
18697;BME280;22617;43.690;27.956;2023-07-22T12:32:13;98543.25;;;37.83;33.90
18697;BME280;22617;43.690;27.956;2023-07-22T12:37:20;98551.31;;;37.91;34.18
18697;BME280;22617;43.690;27.956;2023-07-22T12:42:28;98550.00;;;37.87;33.81
18697;BME280;22617;43.690;27.956;2023-07-22T12:47:40;98546.41;;;37.13;35.00
18697;BME280;22617;43.690;27.956;2023-07-22T12:52:51;98545.59;;;36.90;35.16
18697;BME280;22617;43.690;27.956;2023-07-22T12:58:07;98536.03;;;37.32;34.68
18697;BME280;22617;43.690;27.956;2023-07-22T13:03:17;98545.66;;;36.45;35.04
18697;BME280;22617;43.690;27.956;2023-07-22T13:08:23;98551.56;;;36.71;35.09
18697;BME280;22617;43.690;27.956;2023-07-22T13:13:39;98540.75;;;37.00;35.20
18697;BME280;22617;43.690;27.956;2023-07-22T13:18:48;98536.97;;;37.24;34.70
18697;BME280;22617;43.690;27.956;2023-07-22T13:24:14;98530.91;;;36.39;35.19
18697;BME280;22617;43.690;27.956;2023-07-22T13:29:24;98527.44;;;36.91;35.51
18697;BME280;22617;43.690;27.956;2023-07-22T13:34:31;98522.34;;;37.10;35.71
18697;BME280;22617;43.690;27.956;2023-07-22T13:39:50;98515.03;;;37.11;35.31
18697;BME280;22617;43.690;27.956;2023-07-22T13:44:57;98520.47;;;36.74;35.60
18697;BME280;22617;43.690;27.956;2023-07-22T13:50:07;98521.44;;;36.04;36.69
18697;BME280;22617;43.690;27.956;2023-07-22T13:55:20;98513.13;;;36.74;36.25
18697;BME280;22617;43.690;27.956;2023-07-22T14:00:36;98522.94;;;36.83;35.76
18697;BME280;22617;43.690;27.956;2023-07-22T14:06:14;98518.38;;;36.61;36.15
18697;BME280;22617;43.690;27.956;2023-07-22T14:11:50;98526.09;;;36.72;36.47
18697;BME280;22617;43.690;27.956;2023-07-22T14:17:11;98515.94;;;36.20;36.97
18697;BME280;22617;43.690;27.956;2023-07-22T14:22:44;98504.34;;;36.26;36.63
18697;BME280;22617;43.690;27.956;2023-07-22T14:27:56;98505.94;;;36.21;36.83
18697;BME280;22617;43.690;27.956;2023-07-22T14:33:15;98498.56;;;35.76;37.26
18697;BME280;22617;43.690;27.956;2023-07-22T14:38:53;98501.81;;;35.63;37.94
18697;BME280;22617;43.690;27.956;2023-07-22T14:44:20;98499.63;;;35.59;37.68
18697;BME280;22617;43.690;27.956;2023-07-22T14:55:48;98496.31;;;35.40;38.56
18697;BME280;22617;43.690;27.956;2023-07-22T15:01:03;98497.22;;;35.25;39.27
18697;BME280;22617;43.690;27.956;2023-07-22T15:06:38;98491.59;;;35.34;39.16
18697;BME280;22617;43.690;27.956;2023-07-22T15:11:48;98490.28;;;35.22;39.10
18697;BME280;22617;43.690;27.956;2023-07-22T15:30:52;98489.16;;;34.84;40.57
18697;BME280;22617;43.690;27.956;2023-07-22T15:36:09;98490.22;;;34.67;39.18
18697;BME280;22617;43.690;27.956;2023-07-22T15:41:17;98489.16;;;34.44;39.42
18697;BME280;22617;43.690;27.956;2023-07-22T15:46:23;98496.78;;;34.40;39.33
18697;BME280;22617;43.690;27.956;2023-07-22T15:51:45;98498.78;;;34.30;39.17
18697;BME280;22617;43.690;27.956;2023-07-22T15:57:26;98490.53;;;34.24;39.46
18697;BME280;22617;43.690;27.956;2023-07-22T16:02:37;98500.28;;;34.16;40.27
18697;BME280;22617;43.690;27.956;2023-07-22T16:08:01;98491.97;;;34.02;40.32
18697;BME280;22617;43.690;27.956;2023-07-22T16:13:31;98503.44;;;33.80;39.78
18697;BME280;22617;43.690;27.956;2023-07-22T16:18:40;98499.69;;;33.72;40.44
18697;BME280;22617;43.690;27.956;2023-07-22T16:23:49;98503.66;;;33.60;40.79
18697;BME280;22617;43.690;27.956;2023-07-22T16:29:01;98511.03;;;33.42;40.03
18697;BME280;22617;43.690;27.956;2023-07-22T16:34:06;98513.69;;;33.34;40.32
18697;BME280;22617;43.690;27.956;2023-07-22T16:39:13;98511.59;;;33.20;40.40
18697;BME280;22617;43.690;27.956;2023-07-22T16:44:22;98506.22;;;33.02;41.18
18697;BME280;22617;43.690;27.956;2023-07-22T16:49:39;98511.03;;;32.91;41.48
18697;BME280;22617;43.690;27.956;2023-07-22T16:54:47;98508.16;;;32.66;41.87
18697;BME280;22617;43.690;27.956;2023-07-22T16:59:55;98519.81;;;32.49;42.37
18697;BME280;22617;43.690;27.956;2023-07-22T17:05:04;98517.28;;;32.30;42.74
18697;BME280;22617;43.690;27.956;2023-07-22T17:10:11;98528.31;;;32.19;42.96
18697;BME280;22617;43.690;27.956;2023-07-22T17:15:22;98525.44;;;32.02;43.57
18697;BME280;22617;43.690;27.956;2023-07-22T17:20:56;98522.47;;;31.78;43.75
18697;BME280;22617;43.690;27.956;2023-07-22T17:26:36;98525.56;;;31.56;44.42
18697;BME280;22617;43.690;27.956;2023-07-22T17:32:07;98532.56;;;31.39;44.84
18697;BME280;22617;43.690;27.956;2023-07-22T17:37:18;98534.91;;;31.25;45.24
18697;BME280;22617;43.690;27.956;2023-07-22T17:42:27;98539.22;;;31.08;46.10
18697;BME280;22617;43.690;27.956;2023-07-22T17:47:32;98539.34;;;30.97;46.98
18697;BME280;22617;43.690;27.956;2023-07-22T17:52:38;98533.44;;;30.84;48.04
18697;BME280;22617;43.690;27.956;2023-07-22T17:57:55;98537.00;;;30.65;49.33
18697;BME280;22617;43.690;27.956;2023-07-22T18:03:01;98538.84;;;30.36;49.87
18697;BME280;22617;43.690;27.956;2023-07-22T18:08:10;98544.34;;;30.15;50.67
18697;BME280;22617;43.690;27.956;2023-07-22T18:13:14;98557.41;;;29.79;50.73
18697;BME280;22617;43.690;27.956;2023-07-22T18:18:35;98558.75;;;29.64;51.23
18697;BME280;22617;43.690;27.956;2023-07-22T18:23:56;98569.69;;;29.32;52.42
18697;BME280;22617;43.690;27.956;2023-07-22T18:29:19;98572.81;;;29.17;52.03
18697;BME280;22617;43.690;27.956;2023-07-22T18:34:56;98581.47;;;28.99;52.74
18697;BME280;22617;43.690;27.956;2023-07-22T18:40:12;98570.28;;;28.74;53.78
18697;BME280;22617;43.690;27.956;2023-07-22T18:46:56;98577.19;;;28.55;54.48
18697;BME280;22617;43.690;27.956;2023-07-22T19:04:45;98598.66;;;28.01;56.98
18697;BME280;22617;43.690;27.956;2023-07-22T19:09:51;98595.41;;;27.75;57.28
18697;BME280;22617;43.690;27.956;2023-07-22T19:14:58;98593.81;;;27.40;59.18
18697;BME280;22617;43.690;27.956;2023-07-22T19:20:11;98597.50;;;27.50;58.28
18697;BME280;22617;43.690;27.956;2023-07-22T19:25:19;98591.03;;;27.41;58.23
18697;BME280;22617;43.690;27.956;2023-07-22T19:30:24;98592.84;;;27.18;58.75
18697;BME280;22617;43.690;27.956;2023-07-22T19:35:36;98592.78;;;26.96;58.92
18697;BME280;22617;43.690;27.956;2023-07-22T19:41:03;98592.44;;;27.01;59.06
18697;BME280;22617;43.690;27.956;2023-07-22T19:46:23;98589.97;;;26.86;60.00
18697;BME280;22617;43.690;27.956;2023-07-22T19:51:40;98583.88;;;26.84;59.47
18697;BME280;22617;43.690;27.956;2023-07-22T19:57:08;98590.72;;;26.88;59.54
18697;BME280;22617;43.690;27.956;2023-07-22T20:02:33;98598.22;;;26.25;60.87
18697;BME280;22617;43.690;27.956;2023-07-22T20:08:00;98602.06;;;26.21;60.77
18697;BME280;22617;43.690;27.956;2023-07-22T20:13:46;98582.78;;;26.28;60.67
18697;BME280;22617;43.690;27.956;2023-07-22T20:19:07;98600.44;;;26.31;60.97
18697;BME280;22617;43.690;27.956;2023-07-22T20:25:11;98607.84;;;26.15;61.31
18697;BME280;22617;43.690;27.956;2023-07-22T20:30:28;98609.66;;;26.14;61.21
18697;BME280;22617;43.690;27.956;2023-07-22T20:35:39;98595.56;;;25.88;62.12
18697;BME280;22617;43.690;27.956;2023-07-22T20:40:47;98605.72;;;25.83;62.49
18697;BME280;22617;43.690;27.956;2023-07-22T20:46:37;98597.44;;;25.50;63.06
18697;BME280;22617;43.690;27.956;2023-07-22T20:51:49;98585.66;;;25.52;63.68
18697;BME280;22617;43.690;27.956;2023-07-22T20:56:59;98596.47;;;25.64;63.49
18697;BME280;22617;43.690;27.956;2023-07-22T21:02:40;98591.47;;;25.08;64.94
18697;BME280;22617;43.690;27.956;2023-07-22T21:08:07;98597.13;;;25.42;63.77
18697;BME280;22617;43.690;27.956;2023-07-22T21:14:00;98605.22;;;25.40;64.00
18697;BME280;22617;43.690;27.956;2023-07-22T21:19:36;98619.31;;;25.30;63.84
18697;BME280;22617;43.690;27.956;2023-07-22T21:25:14;98608.13;;;25.12;63.87
18697;BME280;22617;43.690;27.956;2023-07-22T21:30:45;98607.28;;;25.11;64.17
18697;BME280;22617;43.690;27.956;2023-07-22T21:36:07;98608.75;;;25.15;65.44
18697;BME280;22617;43.690;27.956;2023-07-22T21:41:19;98632.31;;;24.96;66.42
18697;BME280;22617;43.690;27.956;2023-07-22T21:46:40;98635.97;;;25.08;66.63
18697;BME280;22617;43.690;27.956;2023-07-22T21:52:00;98626.06;;;25.23;65.97
18697;BME280;22617;43.690;27.956;2023-07-22T21:57:09;98632.66;;;25.04;68.61
18697;BME280;22617;43.690;27.956;2023-07-22T22:02:30;98638.97;;;24.76;70.39
18697;BME280;22617;43.690;27.956;2023-07-22T22:07:37;98631.75;;;24.52;72.22
18697;BME280;22617;43.690;27.956;2023-07-22T22:13:03;98653.56;;;24.31;72.17
18697;BME280;22617;43.690;27.956;2023-07-22T22:18:44;98639.81;;;24.64;70.94
18697;BME280;22617;43.690;27.956;2023-07-22T22:24:00;98638.09;;;24.37;70.79
18697;BME280;22617;43.690;27.956;2023-07-22T22:29:17;98633.19;;;24.30;72.45
18697;BME280;22617;43.690;27.956;2023-07-22T22:34:55;98645.13;;;24.11;72.16
18697;BME280;22617;43.690;27.956;2023-07-22T22:40:08;98636.66;;;24.18;70.38
18697;BME280;22617;43.690;27.956;2023-07-22T22:45:21;98631.19;;;24.34;70.76
18697;BME280;22617;43.690;27.956;2023-07-22T22:50:48;98617.16;;;24.45;70.35
18697;BME280;22617;43.690;27.956;2023-07-22T22:55:56;98607.13;;;24.36;71.04
18697;BME280;22617;43.690;27.956;2023-07-22T23:01:16;98615.28;;;24.32;70.44
18697;BME280;22617;43.690;27.956;2023-07-22T23:06:40;98597.06;;;24.26;71.55
18697;BME280;22617;43.690;27.956;2023-07-22T23:17:23;98607.72;;;24.26;69.94
18697;BME280;22617;43.690;27.956;2023-07-22T23:22:34;98606.75;;;24.13;69.87
18697;BME280;22617;43.690;27.956;2023-07-22T23:27:43;98586.53;;;24.11;70.22
18697;BME280;22617;43.690;27.956;2023-07-22T23:32:52;98580.25;;;24.12;70.75
18697;BME280;22617;43.690;27.956;2023-07-22T23:38:01;98586.28;;;24.01;70.49
18697;BME280;22617;43.690;27.956;2023-07-22T23:43:14;98577.94;;;23.79;71.41
18697;BME280;22617;43.690;27.956;2023-07-22T23:48:28;98576.63;;;23.86;70.84
18697;BME280;22617;43.690;27.956;2023-07-22T23:53:39;98582.75;;;23.74;70.79
18697;BME280;22617;43.690;27.956;2023-07-22T23:58:46;98588.44;;;23.68;71.20
